Time;durP1;ratioP1;P1;durP2;ratioP2;P2;SDS_P1;SDS_P2;PMS_P1;PMS_P2;Temp;Humidity;BMP_temperature;BMP_pressure;BME280_temperature;BME280_humidity;BME280_pressure;Samples;Min_cycle;Max_cycle;Signal;HPM_P1;HPM_P2
2022/09/28 00:01:20;;;;;;;5.30;3.20;;;10.30;99.90;;;;;;5118228;28;20071;-72
2022/09/28 00:03:47;;;;;;;4.95;3.13;;;10.30;99.90;;;;;;5118875;28;20436;-73
2022/09/28 00:06:17;;;;;;;3.83;3.05;;;10.30;99.90;;;;;;5118137;28;20047;-72
2022/09/28 00:08:43;;;;;;;5.65;3.17;;;10.20;99.90;;;;;;5118344;28;20047;-72
2022/09/28 00:11:12;;;;;;;4.13;3.30;;;10.10;99.90;;;;;;5119080;27;20043;-72
2022/09/28 00:13:39;;;;;;;4.78;3.40;;;10.20;99.90;;;;;;5118996;28;20040;-72
2022/09/28 00:16:12;;;;;;;6.07;3.65;;;10.20;99.90;;;;;;5117604;28;20042;-72
2022/09/28 00:18:38;;;;;;;10.10;3.72;;;10.30;99.90;;;;;;5118794;28;20035;-72
2022/09/28 00:21:11;;;;;;;5.15;3.55;;;10.30;99.90;;;;;;5118788;28;20477;-72
2022/09/28 00:26:22;;;;;;;4.85;3.50;;;10.30;99.90;;;;;;5118709;28;20092;-72
2022/09/28 00:28:53;;;;;;;7.95;3.67;;;10.30;99.90;;;;;;5118304;28;20047;-72
2022/09/28 00:31:20;;;;;;;6.07;3.40;;;10.30;99.90;;;;;;5118721;28;20043;-72
2022/09/28 00:33:54;;;;;;;5.20;3.85;;;10.30;99.90;;;;;;5118882;28;20043;-72
2022/09/28 00:36:19;;;;;;;6.57;3.90;;;10.40;99.90;;;;;;5117260;28;20047;-72
2022/09/28 00:38:45;;;;;;;6.38;3.80;;;10.40;99.90;;;;;;5118424;28;20040;-73
2022/09/28 00:41:11;;;;;;;5.10;3.08;;;10.40;99.90;;;;;;5118765;28;20357;-72
2022/09/28 00:43:37;;;;;;;4.38;3.47;;;10.40;99.90;;;;;;5118447;28;20031;-72
2022/09/28 00:46:12;;;;;;;6.28;3.70;;;10.50;99.90;;;;;;5117971;28;20463;-72
2022/09/28 00:48:47;;;;;;;4.82;3.30;;;10.50;99.90;;;;;;5118374;28;20455;-72
2022/09/28 00:51:12;;;;;;;5.80;3.88;;;10.50;99.90;;;;;;5116983;28;20118;-72
2022/09/28 00:53:42;;;;;;;6.32;3.65;;;10.50;99.90;;;;;;5151263;27;20180;-72
2022/09/28 00:56:12;;;;;;;6.40;4.18;;;10.50;99.90;;;;;;5116833;28;20043;-72
2022/09/28 00:58:46;;;;;;;5.13;3.80;;;10.50;99.90;;;;;;5117620;28;20075;-72
2022/09/28 01:01:12;;;;;;;5.03;3.83;;;10.50;99.90;;;;;;5117887;28;20043;-72
2022/09/28 01:03:44;;;;;;;5.55;4.15;;;10.50;99.90;;;;;;5117716;28;20531;-72
2022/09/28 01:06:12;;;;;;;6.65;4.10;;;10.50;99.90;;;;;;5117171;28;20333;-72
2022/09/28 01:08:39;;;;;;;7.85;3.75;;;10.50;99.90;;;;;;5117905;27;20120;-72
2022/09/28 01:11:04;;;;;;;7.95;3.88;;;10.50;99.90;;;;;;5117844;28;20044;-72
2022/09/28 01:13:31;;;;;;;5.32;3.80;;;10.50;99.90;;;;;;5117577;28;20047;-72
2022/09/28 01:16:14;;;;;;;11.35;4.75;;;10.40;99.90;;;;;;5117809;28;20123;-72
2022/09/28 01:18:52;;;;;;;7.35;4.18;;;10.40;99.90;;;;;;5150754;27;20133;-72
2022/09/28 01:21:21;;;;;;;5.30;4.18;;;10.30;99.90;;;;;;5117505;28;20043;-72
2022/09/28 01:24:20;;;;;;;7.07;4.60;;;10.20;99.90;;;;;;5117704;28;20317;-73
2022/09/28 01:26:48;;;;;;;5.13;3.65;;;10.20;99.90;;;;;;5117341;28;20421;-72
2022/09/28 01:29:56;;;;;;;7.25;4.15;;;10.10;99.90;;;;;;5117161;28;20128;-72
2022/09/28 01:32:33;;;;;;;4.65;3.60;;;10.00;99.90;;;;;;5117574;28;20044;-72
2022/09/28 01:35:10;;;;;;;4.82;3.55;;;9.90;99.90;;;;;;5117561;28;20039;-72
2022/09/28 01:38:01;;;;;;;6.30;3.53;;;9.90;99.90;;;;;;5117542;28;20050;-72
2022/09/28 01:40:29;;;;;;;7.75;4.03;;;9.90;99.90;;;;;;5117147;28;20036;-72
2022/09/28 01:43:06;;;;;;;5.00;3.40;;;9.90;99.90;;;;;;5117397;28;20031;-72
2022/09/28 01:45:57;;;;;;;5.18;3.92;;;9.80;99.90;;;;;;5117097;28;20056;-72
2022/09/28 01:48:30;;;;;;;5.80;3.85;;;9.80;99.90;;;;;;5108721;28;20067;-72
2022/09/28 01:50:59;;;;;;;5.07;3.90;;;9.80;99.90;;;;;;5117179;28;20122;-72
2022/09/28 01:53:35;;;;;;;6.03;4.13;;;9.80;99.90;;;;;;5117004;28;20039;-72
2022/09/28 01:56:08;;;;;;;7.38;4.13;;;9.70;99.90;;;;;;5116273;28;20035;-72
2022/09/28 01:58:38;;;;;;;7.13;4.13;;;9.70;99.90;;;;;;5115700;28;20485;-72
2022/09/28 02:01:15;;;;;;;7.75;3.45;;;9.60;99.90;;;;;;5116938;28;20432;-72
2022/09/28 02:03:50;;;;;;;4.93;3.50;;;9.60;99.90;;;;;;5098972;28;20042;-72
2022/09/28 02:06:39;;;;;;;8.43;4.20;;;9.60;99.90;;;;;;5116248;28;20075;-72
2022/09/28 02:09:11;;;;;;;5.10;3.75;;;9.50;99.90;;;;;;5117185;28;20035;-72
2022/09/28 02:11:44;;;;;;;6.00;3.88;;;9.50;99.90;;;;;;5115845;28;20046;-72
2022/09/28 02:14:14;;;;;;;7.72;4.22;;;9.50;99.90;;;;;;5115788;28;20123;-72
2022/09/28 02:16:42;;;;;;;8.70;4.72;;;9.50;99.90;;;;;;5118608;28;20420;-72
2022/09/28 02:19:15;;;;;;;4.90;3.80;;;9.50;99.90;;;;;;5120059;28;20053;-72
2022/09/28 02:22:22;;;;;;;6.50;4.00;;;9.50;99.90;;;;;;5121205;28;20064;-72
2022/09/28 02:24:58;;;;;;;10.25;4.40;;;9.50;99.90;;;;;;5121615;28;20032;-72
2022/09/28 02:27:35;;;;;;;12.43;4.47;;;9.50;99.90;;;;;;5120742;28;20111;-72
2022/09/28 02:30:03;;;;;;;8.20;4.68;;;9.60;99.90;;;;;;5121061;28;20044;-72
2022/09/28 02:32:32;;;;;;;7.65;4.82;;;9.70;99.90;;;;;;5120939;28;20079;-72
2022/09/28 02:34:58;;;;;;;5.85;3.88;;;9.80;99.90;;;;;;5120891;28;20039;-72
2022/09/28 02:37:25;;;;;;;6.88;4.30;;;9.80;99.90;;;;;;5119783;28;20066;-72
2022/09/28 02:39:51;;;;;;;6.05;3.38;;;9.90;99.90;;;;;;5119420;28;20122;-72
2022/09/28 02:42:27;;;;;;;7.20;3.40;;;9.90;99.90;;;;;;5120772;28;20127;-72
2022/09/28 02:45:13;;;;;;;6.40;4.10;;;9.90;99.90;;;;;;5121291;27;20048;-72
2022/09/28 02:48:16;;;;;;;5.68;3.38;;;10.00;99.90;;;;;;5120647;28;20357;-72
2022/09/28 02:50:59;;;;;;;6.82;4.03;;;10.00;99.90;;;;;;5096499;28;20043;-72
2022/09/28 02:53:47;;;;;;;17.75;5.22;;;10.00;99.90;;;;;;5119362;28;20051;-72
2022/09/28 02:56:48;;;;;;;5.63;4.25;;;10.10;99.90;;;;;;5120505;28;20031;-72
2022/09/28 02:59:22;;;;;;;8.65;4.20;;;10.10;99.90;;;;;;5153098;27;20047;-72
2022/09/28 03:02:04;;;;;;;7.50;4.28;;;10.10;99.90;;;;;;5102042;28;20043;-72
2022/09/28 03:04:41;;;;;;;12.35;4.90;;;10.20;99.90;;;;;;5120310;28;20071;-72
2022/09/28 03:07:27;;;;;;;;;;;10.20;99.90;;;;;;5119907;28;20039;-72
2022/09/28 03:10:02;;;;;;;9.10;5.47;;;10.30;99.90;;;;;;5119964;28;19916;-72
2022/09/28 03:12:28;;;;;;;17.85;5.28;;;10.20;99.90;;;;;;5119952;28;20447;-72
2022/09/28 03:15:08;;;;;;;15.93;6.30;;;10.20;99.90;;;;;;5102114;28;20126;-72
2022/09/28 03:17:33;;;;;;;13.88;5.85;;;10.30;99.90;;;;;;5119043;28;20043;-72
2022/09/28 03:19:59;;;;;;;8.90;5.55;;;10.20;99.90;;;;;;5120010;28;20306;-72
2022/09/28 03:22:25;;;;;;;12.38;5.57;;;10.20;99.90;;;;;;5153044;27;20040;-72
2022/09/28 03:24:50;;;;;;;11.07;6.10;;;10.00;99.90;;;;;;5119912;28;20036;-72
2022/09/28 03:27:16;;;;;;;8.77;6.15;;;9.90;99.90;;;;;;5119013;28;20043;-72
2022/09/28 03:29:42;;;;;;;10.93;5.78;;;9.90;99.90;;;;;;5119375;28;20035;-72
2022/09/28 03:32:07;;;;;;;9.45;6.53;;;10.00;99.90;;;;;;5118814;28;20040;-72
2022/09/28 03:34:34;;;;;;;10.45;6.40;;;10.00;99.90;;;;;;5119746;28;20036;-72
2022/09/28 03:37:00;;;;;;;9.13;5.95;;;10.00;99.90;;;;;;5119398;28;20489;-72
2022/09/28 03:39:25;;;;;;;11.73;6.30;;;9.90;99.90;;;;;;5119263;28;20043;-72
2022/09/28 03:41:51;;;;;;;17.48;6.10;;;9.80;99.90;;;;;;5119612;28;20039;-72
2022/09/28 03:44:17;;;;;;;11.80;6.00;;;9.70;99.90;;;;;;5119549;28;20329;-72
2022/09/28 03:46:42;;;;;;;9.48;5.57;;;9.60;99.90;;;;;;5119151;28;20427;-72
2022/09/28 03:49:09;;;;;;;8.13;5.72;;;9.50;99.90;;;;;;5119476;28;20043;-71
2022/09/28 03:51:34;;;;;;;19.42;6.57;;;9.60;99.90;;;;;;5119445;28;20074;-72
2022/09/28 03:54:00;;;;;;;17.83;6.97;;;9.70;99.90;;;;;;5119259;28;20124;-72
2022/09/28 03:56:26;;;;;;;35.03;8.05;;;9.90;99.90;;;;;;5119338;28;20063;-72
2022/09/28 03:58:51;;;;;;;21.20;7.57;;;9.90;99.90;;;;;;5152170;27;20389;-72
2022/09/28 04:01:17;;;;;;;20.83;7.45;;;10.00;99.90;;;;;;5119260;28;20413;-72
2022/09/28 04:03:44;;;;;;;30.55;7.40;;;10.10;99.90;;;;;;5119209;28;20096;-72
2022/09/28 04:06:10;;;;;;;12.85;6.32;;;10.10;99.90;;;;;;5119182;28;20063;-72
2022/09/28 04:08:36;;;;;;;12.85;6.57;;;10.10;99.90;;;;;;5119154;28;20046;-72
2022/09/28 04:11:01;;;;;;;7.10;5.45;;;10.00;99.90;;;;;;5118739;28;20039;-72
2022/09/28 04:13:29;;;;;;;10.68;5.75;;;10.00;99.90;;;;;;5119012;28;20050;-72
2022/09/28 04:15:57;;;;;;;7.75;5.00;;;9.90;99.90;;;;;;5114894;28;20047;-72
2022/09/28 04:18:23;;;;;;;7.65;5.00;;;9.80;99.90;;;;;;5116778;28;20042;-72
2022/09/28 04:21:02;;;;;;;8.60;5.47;;;9.80;99.90;;;;;;5117535;28;20039;-72
2022/09/28 04:23:28;;;;;;;18.52;5.60;;;9.80;99.90;;;;;;5118858;28;20374;-72
2022/09/28 04:25:54;;;;;;;6.05;4.72;;;9.80;99.90;;;;;;5118798;28;20039;-72
2022/09/28 04:31:13;;;;;;;7.18;5.47;;;9.70;99.90;;;;;;5118690;28;20082;-72
2022/09/28 04:33:39;;;;;;;7.25;5.55;;;9.70;99.90;;;;;;5118696;28;20316;-72
2022/09/28 04:36:04;;;;;;;6.95;4.90;;;9.70;99.90;;;;;;5117553;28;20122;-72
2022/09/28 04:38:31;;;;;;;7.55;5.07;;;9.70;99.90;;;;;;5118126;28;20043;-72
2022/09/28 04:40:56;;;;;;;7.28;5.43;;;9.70;99.90;;;;;;5118410;28;20070;-72
2022/09/28 04:43:22;;;;;;;10.18;5.63;;;9.70;99.90;;;;;;5118420;28;20122;-72
2022/09/28 04:45:48;;;;;;;11.63;5.88;;;9.80;99.90;;;;;;5118019;28;20055;-72
2022/09/28 04:48:13;;;;;;;10.82;5.55;;;9.80;99.90;;;;;;5151475;27;20049;-72
2022/09/28 04:50:39;;;;;;;7.13;5.40;;;9.70;99.90;;;;;;5117279;28;20161;-72
2022/09/28 04:53:05;;;;;;;8.35;5.60;;;9.70;99.90;;;;;;5118244;28;20400;-72
2022/09/28 04:55:31;;;;;;;9.45;6.03;;;9.80;99.90;;;;;;5151455;27;20130;-72
2022/09/28 04:58:02;;;;;;;7.90;6.00;;;9.70;99.90;;;;;;5117742;28;20043;-72
2022/09/28 05:00:32;;;;;;;8.10;5.40;;;9.70;99.90;;;;;;5117985;28;20391;-72
2022/09/28 05:02:58;;;;;;;8.85;5.40;;;9.60;99.90;;;;;;5118085;28;20050;-72
2022/09/28 05:05:23;;;;;;;10.68;6.68;;;9.60;99.90;;;;;;5117690;28;20035;-72
2022/09/28 05:07:49;;;;;;;9.85;5.93;;;9.60;99.90;;;;;;5117968;28;20039;-72
2022/09/28 05:10:16;;;;;;;8.82;5.97;;;9.60;99.90;;;;;;5117907;28;20043;-72
2022/09/28 05:12:41;;;;;;;8.63;5.97;;;9.60;99.90;;;;;;5117559;28;20104;-72
2022/09/28 05:15:07;;;;;;;9.15;5.95;;;9.60;99.90;;;;;;5150922;27;20048;-72
2022/09/28 05:17:33;;;;;;;8.45;6.53;;;9.70;99.90;;;;;;5117320;28;20448;-72
2022/09/28 05:19:59;;;;;;;12.13;6.70;;;9.70;99.90;;;;;;5117463;28;20039;-71
2022/09/28 05:22:25;;;;;;;10.93;6.13;;;9.70;99.90;;;;;;5117163;28;20443;-72
2022/09/28 05:24:50;;;;;;;8.65;5.70;;;9.80;99.90;;;;;;5117473;28;20027;-73
2022/09/28 05:27:16;;;;;;;9.13;6.05;;;9.80;99.90;;;;;;5116617;28;20031;-72
2022/09/28 05:29:42;;;;;;;7.88;6.13;;;9.80;99.90;;;;;;5117195;28;20046;-72
2022/09/28 05:32:07;;;;;;;9.55;6.25;;;9.80;99.90;;;;;;5150665;27;20051;-72
2022/09/28 05:34:33;;;;;;;8.73;6.35;;;9.70;99.90;;;;;;5150778;27;20083;-72
2022/09/28 05:36:59;;;;;;;11.00;6.57;;;9.80;99.90;;;;;;5117102;28;20337;-72
2022/09/28 05:39:24;;;;;;;11.75;6.55;;;9.70;99.90;;;;;;5117400;28;20047;-72
2022/09/28 05:41:50;;;;;;;8.70;5.93;;;9.80;99.90;;;;;;5117487;28;20032;-72
2022/09/28 05:44:16;;;;;;;8.63;6.60;;;9.80;99.90;;;;;;5117068;28;20437;-72
2022/09/28 05:46:41;;;;;;;9.10;5.97;;;9.80;99.90;;;;;;5116973;28;20051;-72
2022/09/28 05:49:07;;;;;;;7.80;6.15;;;9.80;99.90;;;;;;5117329;28;20050;-72
2022/09/28 05:51:32;;;;;;;8.27;6.25;;;9.80;99.90;;;;;;5116553;28;20052;-72
2022/09/28 05:53:58;;;;;;;10.40;6.32;;;9.80;99.90;;;;;;5117037;28;20119;-72
2022/09/28 05:56:24;;;;;;;8.23;5.90;;;9.70;99.90;;;;;;5117187;28;20046;-72
2022/09/28 05:58:49;;;;;;;9.70;6.32;;;9.60;99.90;;;;;;5116766;28;20112;-72
2022/09/28 06:01:15;;;;;;;10.63;6.20;;;9.50;99.90;;;;;;5117284;28;20472;-72
2022/09/28 06:03:41;;;;;;;9.60;5.97;;;9.50;99.90;;;;;;5117009;28;20116;-72
2022/09/28 06:06:06;;;;;;;9.20;6.22;;;9.50;99.90;;;;;;5117159;28;20420;-72
2022/09/28 06:08:32;;;;;;;10.85;6.93;;;9.50;99.90;;;;;;5117172;28;20054;-72
2022/09/28 06:11:00;;;;;;;10.02;6.95;;;9.60;99.90;;;;;;5117085;28;20043;-72
2022/09/28 06:13:26;;;;;;;9.93;7.28;;;9.70;99.90;;;;;;5117144;28;20031;-72
2022/09/28 06:15:52;;;;;;;10.30;7.38;;;9.80;99.90;;;;;;5117164;28;20141;-72
2022/09/28 06:18:18;;;;;;;11.40;7.68;;;9.80;99.90;;;;;;5116972;28;20130;-72
2022/09/28 06:20:43;;;;;;;8.70;6.72;;;9.90;99.90;;;;;;5133173;28;20047;-72
2022/09/28 06:23:10;;;;;;;10.82;6.70;;;9.80;99.90;;;;;;5150149;27;20377;-72
2022/09/28 06:25:36;;;;;;;8.95;6.43;;;9.70;99.90;;;;;;5117050;28;20044;-72
2022/09/28 06:28:04;;;;;;;8.88;6.38;;;9.80;99.90;;;;;;5116554;28;20039;-72
2022/09/28 06:30:32;;;;;;;9.43;6.38;;;9.80;99.90;;;;;;5117515;28;20039;-72
2022/09/28 06:33:00;;;;;;;11.05;7.00;;;9.80;99.90;;;;;;5116974;28;20043;-72
2022/09/28 06:35:29;;;;;;;11.07;6.60;;;9.80;99.90;;;;;;5116965;28;20039;-72
2022/09/28 06:37:55;;;;;;;10.30;7.00;;;9.90;99.90;;;;;;5116917;28;20324;-72
2022/09/28 06:40:21;;;;;;;11.20;6.60;;;10.00;99.90;;;;;;5115547;28;20051;-72
2022/09/28 06:43:14;;;;;;;10.95;7.10;;;10.00;99.90;;;;;;5116876;28;20115;-72
2022/09/28 06:45:40;;;;;;;23.42;8.77;;;10.00;99.90;;;;;;5116564;28;20052;-72
2022/09/28 06:48:07;;;;;;;11.98;7.82;;;10.00;99.90;;;;;;5116596;28;20128;-72
2022/09/28 06:50:36;;;;;;;11.27;7.25;;;10.20;99.90;;;;;;5116793;28;20044;-72
2022/09/28 06:53:05;;;;;;;13.63;7.75;;;10.30;99.90;;;;;;5116787;28;20101;-72
2022/09/28 06:55:31;;;;;;;17.70;8.57;;;10.40;99.90;;;;;;5116758;28;20081;-72
2022/09/28 06:58:05;;;;;;;17.95;9.02;;;10.50;99.90;;;;;;5114985;28;20043;-72
2022/09/28 07:00:33;;;;;;;12.30;8.45;;;10.50;99.90;;;;;;5116671;28;20054;-72
2022/09/28 07:03:01;;;;;;;10.02;7.53;;;10.60;99.90;;;;;;5117250;28;20035;-72
2022/09/28 07:05:27;;;;;;;14.20;8.68;;;10.70;99.90;;;;;;5120078;28;20110;-72
2022/09/28 07:07:54;;;;;;;15.93;8.10;;;10.70;99.90;;;;;;5120360;28;20386;-72
2022/09/28 07:10:30;;;;;;;12.02;7.25;;;10.80;99.90;;;;;;5119038;28;20078;-72
2022/09/28 07:13:01;;;;;;;11.85;7.35;;;10.80;99.90;;;;;;5120294;28;20050;-73
2022/09/28 07:15:28;;;;;;;9.15;7.30;;;10.70;99.90;;;;;;5119185;28;20378;-72
2022/09/28 07:18:01;;;;;;;9.60;7.28;;;10.70;99.90;;;;;;5119809;28;20041;-72
2022/09/28 07:20:28;;;;;;;12.23;7.30;;;10.70;99.90;;;;;;5119727;28;20643;-72
2022/09/28 07:22:55;;;;;;;19.95;8.82;;;10.80;99.90;;;;;;5118782;28;20536;-72
2022/09/28 07:25:22;;;;;;;12.02;8.65;;;10.80;99.90;;;;;;5119659;28;20460;-71
2022/09/28 07:27:48;;;;;;;11.57;7.60;;;10.80;99.90;;;;;;5119616;28;20088;-71
2022/09/28 07:30:14;;;;;;;20.10;9.32;;;10.90;99.90;;;;;;5118943;28;20422;-72
2022/09/28 07:32:40;;;;;;;27.20;8.23;;;11.00;99.90;;;;;;5119840;28;20044;-74
2022/09/28 07:35:09;;;;;;;12.40;7.70;;;10.90;99.90;;;;;;5119783;28;20039;-73
2022/09/28 07:37:35;;;;;;;15.60;7.90;;;10.70;99.90;;;;;;5119450;28;20443;-72
2022/09/28 07:42:50;;;;;;;12.68;7.60;;;11.00;99.90;;;;;;5119649;28;20081;-74
2022/09/28 07:45:16;;;;;;;27.75;10.48;;;11.00;99.90;;;;;;5119907;28;20138;-70
2022/09/28 07:47:42;;;;;;;16.70;9.52;;;11.00;99.90;;;;;;5121662;28;20039;-74
2022/09/28 07:50:08;;;;;;;22.60;10.65;;;11.10;99.90;;;;;;5119438;28;20027;-72
2022/09/28 07:52:35;;;;;;;13.75;8.98;;;11.30;99.90;;;;;;5119452;28;20035;-72
2022/09/28 07:55:04;;;;;;;12.80;8.40;;;11.30;99.90;;;;;;5119453;28;20365;-71
2022/09/28 07:57:32;;;;;;;14.50;8.85;;;11.30;99.90;;;;;;5119351;28;20044;-73
2022/09/28 07:59:59;;;;;;;24.20;9.60;;;11.40;99.90;;;;;;5119363;28;20336;-73
2022/09/28 08:02:25;;;;;;;17.50;8.40;;;11.40;99.90;;;;;;5119302;28;20044;-73
2022/09/28 08:04:51;;;;;;;15.45;8.13;;;11.50;99.90;;;;;;5118943;28;20336;-73
2022/09/28 08:07:18;;;;;;;21.13;8.48;;;11.20;99.90;;;;;;5119205;28;20098;-73
2022/09/28 08:09:45;;;;;;;18.73;7.57;;;11.00;99.90;;;;;;5119098;28;20031;-73
2022/09/28 08:12:12;;;;;;;11.55;8.00;;;11.00;99.90;;;;;;5119072;28;20096;-73
2022/09/28 08:14:38;;;;;;;12.55;8.50;;;11.00;99.90;;;;;;5118366;28;20050;-73
2022/09/28 08:17:06;;;;;;;20.17;7.97;;;11.20;99.90;;;;;;5118040;28;20122;-74
2022/09/28 08:22:17;;;;;;;15.55;8.90;;;11.40;99.90;;;;;;5118908;28;20047;-73
2022/09/28 08:24:44;;;;;;;15.15;7.55;;;11.40;99.90;;;;;;5118859;28;20344;-73
2022/09/28 08:27:10;;;;;;;12.68;8.07;;;11.30;99.90;;;;;;5118795;28;20061;-74
2022/09/28 08:29:36;;;;;;;12.13;7.97;;;11.40;99.90;;;;;;5117314;28;20173;-74
2022/09/28 08:32:06;;;;;;;13.68;7.90;;;11.50;99.90;;;;;;5118361;28;20044;-74
2022/09/28 08:34:33;;;;;;;11.27;7.72;;;11.50;99.90;;;;;;5117426;28;20044;-74
2022/09/28 08:36:59;;;;;;;9.85;6.80;;;11.60;99.90;;;;;;5118307;28;20038;-73
2022/09/28 08:39:25;;;;;;;8.52;6.57;;;11.80;99.90;;;;;;5118495;28;20115;-74
2022/09/28 08:42:09;;;;;;;11.35;7.70;;;11.80;99.90;;;;;;5118076;28;20040;-74
2022/09/28 08:44:49;;;;;;;12.10;7.80;;;11.80;99.90;;;;;;5118387;28;20036;-72
2022/09/28 08:50:10;;;;;;;8.93;6.50;;;11.90;99.90;;;;;;5118348;28;20086;-73
2022/09/28 08:52:39;;;;;;;10.90;7.60;;;11.80;99.90;;;;;;5118294;28;20320;-73
2022/09/28 08:55:35;;;;;;;10.77;7.30;;;11.80;99.90;;;;;;5117934;28;20047;-74
2022/09/28 08:58:21;;;;;;;11.40;7.75;;;12.10;99.90;;;;;;5117413;28;20146;-74
2022/09/28 09:00:48;;;;;;;10.48;7.53;;;12.10;99.90;;;;;;5118052;28;20054;-74
2022/09/28 09:03:33;;;;;;;13.80;7.85;;;12.00;99.90;;;;;;5117815;28;20066;-73
2022/09/28 09:06:04;;;;;;;14.98;8.20;;;11.90;99.90;;;;;;5117995;28;20050;-74
2022/09/28 09:08:43;;;;;;;9.43;6.80;;;11.90;99.90;;;;;;5118221;28;20088;-74
2022/09/28 09:11:17;;;;;;;14.23;7.85;;;12.20;99.90;;;;;;5117031;28;20031;-72
2022/09/28 09:14:02;;;;;;;12.05;7.60;;;12.40;99.90;;;;;;5117815;28;20325;-73
2022/09/28 09:16:58;;;;;;;9.48;6.07;;;12.40;99.90;;;;;;5117874;28;20127;-79
2022/09/28 09:19:40;;;;;;;13.63;7.50;;;12.70;99.90;;;;;;5117549;28;20363;-71
2022/09/28 09:22:55;;;;;;;12.38;7.50;;;12.90;99.90;;;;;;5117856;28;20048;-72
2022/09/28 09:25:31;;;;;;;10.77;7.65;;;12.80;99.90;;;;;;5046381;28;20072;-71
2022/09/28 09:27:57;;;;;;;9.07;6.78;;;12.90;99.90;;;;;;5054226;28;20025;-72
2022/09/28 09:30:27;;;;;;;12.30;7.75;;;13.10;99.90;;;;;;5087450;28;20048;-72
2022/09/28 09:33:03;;;;;;;14.38;7.63;;;13.40;99.90;;;;;;5102704;28;20042;-72
2022/09/28 09:35:37;;;;;;;10.75;7.45;;;13.60;99.90;;;;;;5111867;28;20047;-72
2022/09/28 09:38:16;;;;;;;9.50;6.57;;;13.70;99.90;;;;;;5114778;28;20443;-73
2022/09/28 09:40:59;;;;;;;10.73;7.45;;;13.70;99.90;;;;;;5105045;28;20089;-72
2022/09/28 09:43:41;;;;;;;8.70;6.45;;;13.80;99.90;;;;;;5115084;27;20032;-75
2022/09/28 09:46:06;;;;;;;9.65;7.18;;;13.70;99.90;;;;;;5107447;28;20056;-72
2022/09/28 09:48:50;;;;;;;9.93;6.30;;;13.80;99.90;;;;;;5109429;28;20043;-71
2022/09/28 09:51:26;;;;;;;8.68;6.15;;;13.80;99.90;;;;;;5128528;27;20050;-71
2022/09/28 09:54:02;;;;;;;10.43;5.22;;;13.80;99.90;;;;;;5131041;27;20039;-71
2022/09/28 09:56:43;;;;;;;7.50;5.03;;;14.00;99.90;;;;;;5096985;28;20447;-72
2022/09/28 09:59:32;;;;;;;9.45;5.03;;;14.20;99.90;;;;;;5096385;28;20048;-70
2022/09/28 10:02:18;;;;;;;9.85;6.10;;;14.40;99.90;;;;;;5096613;28;20074;-71
2022/09/28 10:04:47;;;;;;;10.90;5.38;;;14.80;99.90;;;;;;5096871;28;20047;-71
2022/09/28 10:07:40;;;;;;;7.78;5.47;;;15.10;99.90;;;;;;5095504;28;20036;-70
2022/09/28 10:10:14;;;;;;;5.90;3.72;;;15.30;99.90;;;;;;5096819;28;20059;-70
2022/09/28 10:12:40;;;;;;;7.65;3.30;;;15.30;99.90;;;;;;5096841;28;20077;-70
2022/09/28 10:15:07;;;;;;;5.15;3.13;;;15.60;99.90;;;;;;5095613;28;20036;-70
2022/09/28 10:17:36;;;;;;;5.70;2.60;;;15.80;99.90;;;;;;5103775;28;20035;-70
2022/09/28 10:20:02;;;;;;;4.35;2.35;;;15.70;99.90;;;;;;5116546;28;20051;-71
2022/09/28 10:22:30;;;;;;;3.72;1.90;;;15.80;99.90;;;;;;5111177;28;20071;-71
2022/09/28 10:24:58;;;;;;;3.53;1.83;;;15.90;99.90;;;;;;5096503;28;20329;-71
2022/09/28 10:27:30;;;;;;;4.07;1.58;;;16.00;99.90;;;;;;5108231;28;20090;-70
2022/09/28 10:30:15;;;;;;;3.15;1.60;;;16.20;99.90;;;;;;5116830;28;20040;-71
2022/09/28 10:32:43;;;;;;;4.60;1.48;;;16.20;99.90;;;;;;5111595;28;20044;-71
2022/09/28 10:35:18;;;;;;;3.17;1.25;;;16.40;99.90;;;;;;5116761;28;20054;-70
2022/09/28 10:37:47;;;;;;;2.38;1.20;;;16.50;99.90;;;;;;5118783;28;20078;-69
2022/09/28 10:40:45;;;;;;;2.97;0.90;;;16.60;99.90;;;;;;5120782;28;20089;-69
2022/09/28 10:43:24;;;;;;;3.13;1.42;;;16.60;99.90;;;;;;5120802;28;20050;-69
2022/09/28 10:46:07;;;;;;;2.65;1.23;;;17.00;99.90;;;;;;5102287;28;20060;-67
2022/09/28 10:48:45;;;;;;;1.35;1.10;;;17.40;99.80;;;;;;5120722;28;20040;-69
2022/09/28 10:51:10;;;;;;;2.17;1.10;;;17.70;99.90;;;;;;5120354;28;20431;-71
2022/09/28 10:53:37;;;;;;;2.83;1.17;;;17.70;99.90;;;;;;5120288;28;20039;-73
2022/09/28 10:56:07;;;;;;;2.65;1.00;;;17.70;99.90;;;;;;5120565;28;20039;-72
2022/09/28 10:58:40;;;;;;;0.82;0.80;;;17.80;99.70;;;;;;5120461;28;20043;-71
2022/09/28 11:01:13;;;;;;;3.05;0.80;;;17.70;99.90;;;;;;5119288;28;20031;-72
2022/09/28 11:04:03;;;;;;;3.53;0.55;;;17.60;99.80;;;;;;5120436;28;20031;-70
2022/09/28 11:06:30;;;;;;;1.50;0.45;;;17.60;99.90;;;;;;5120464;28;20325;-71
2022/09/28 11:08:59;;;;;;;2.67;0.40;;;17.60;99.50;;;;;;5120339;28;20051;-71
2022/09/28 11:11:25;;;;;;;2.55;0.50;;;17.50;99.90;;;;;;5120013;28;20333;-71
2022/09/28 11:14:02;;;;;;;1.23;0.50;;;17.10;98.90;;;;;;5120236;28;20337;-72
2022/09/28 11:16:30;;;;;;;1.02;0.38;;;17.00;99.40;;;;;;5120221;28;20047;-71
2022/09/28 11:19:02;;;;;;;1.95;0.25;;;16.90;99.00;;;;;;5119787;28;20170;-72
2022/09/28 11:21:33;;;;;;;0.80;0.28;;;16.80;99.10;;;;;;5120659;28;20350;-71
2022/09/28 11:24:05;;;;;;;1.02;0.30;;;17.00;98.70;;;;;;5119708;28;20137;-71
2022/09/28 11:26:37;;;;;;;0.75;0.17;;;17.10;99.60;;;;;;5119677;28;20336;-71
2022/09/28 11:29:04;;;;;;;1.90;0.40;;;17.00;99.50;;;;;;5119594;28;20047;-71
2022/09/28 11:31:30;;;;;;;2.67;0.40;;;17.00;99.50;;;;;;5119913;28;20051;-71
2022/09/28 11:34:31;;;;;;;3.92;0.50;;;17.00;99.90;;;;;;5119883;28;20043;-71
2022/09/28 11:37:16;;;;;;;0.60;0.30;;;17.10;99.90;;;;;;5109155;28;20345;-71
2022/09/28 11:40:28;;;;;;;2.72;0.25;;;17.10;99.10;;;;;;5119746;28;20044;-71
2022/09/28 11:43:15;;;;;;;0.75;0.20;;;16.90;99.20;;;;;;5104662;28;20440;-71
2022/09/28 11:45:52;;;;;;;1.15;0.20;;;17.00;99.30;;;;;;5119388;28;20112;-71
2022/09/28 11:48:26;;;;;;;2.53;0.30;;;17.00;99.10;;;;;;5118914;28;20451;-71
2022/09/28 11:51:00;;;;;;;0.77;0.13;;;17.00;99.20;;;;;;5119384;28;20043;-71
2022/09/28 11:53:37;;;;;;;0.77;0.15;;;16.90;99.50;;;;;;5119252;28;20047;-72
2022/09/28 11:56:09;;;;;;;1.85;0.20;;;17.00;98.80;;;;;;5119548;28;20062;-72
2022/09/28 11:59:02;;;;;;;0.95;0.15;;;17.10;98.60;;;;;;5118989;28;20044;-72
2022/09/28 12:01:44;;;;;;;1.58;0.10;;;17.30;98.50;;;;;;5111251;28;20104;-72
2022/09/28 12:04:25;;;;;;;1.40;0.13;;;17.40;98.30;;;;;;5119013;28;20071;-72
2022/09/28 12:07:26;;;;;;;0.43;0.10;;;17.50;98.80;;;;;;5119316;28;20039;-71
2022/09/28 12:10:10;;;;;;;1.92;0.20;;;17.50;98.90;;;;;;5085902;27;20093;-72
2022/09/28 12:12:59;;;;;;;0.60;0.10;;;17.60;98.40;;;;;;5119150;28;20053;-72
2022/09/28 12:16:00;;;;;;;2.17;0.32;;;17.30;98.50;;;;;;5119130;28;20051;-71
2022/09/28 12:18:35;;;;;;;2.47;0.30;;;17.10;98.90;;;;;;5119097;28;20325;-71
2022/09/28 12:21:10;;;;;;;3.00;0.30;;;16.70;99.60;;;;;;5118935;28;20124;-71
2022/09/28 12:23:40;;;;;;;2.33;0.20;;;16.40;99.90;;;;;;5118967;28;20035;-71
2022/09/28 12:26:22;;;;;;;1.20;0.40;;;16.00;99.90;;;;;;5118597;27;20132;-72
2022/09/28 12:28:55;;;;;;;1.92;0.40;;;15.70;99.90;;;;;;5118490;28;20133;-72
2022/09/28 12:31:52;;;;;;;2.92;0.75;;;15.60;99.90;;;;;;5118741;28;20071;-71
2022/09/28 12:34:18;;;;;;;;;;;15.80;99.90;;;;;;5118944;28;20036;-72
2022/09/28 12:37:38;;;;;;;2.30;0.30;;;15.90;99.90;;;;;;5118690;28;19923;-72
2022/09/28 12:40:22;;;;;;;2.33;0.20;;;16.00;99.90;;;;;;5055786;28;20079;-72
2022/09/28 12:42:51;;;;;;;1.98;0.50;;;16.10;99.90;;;;;;5113027;28;20051;-72
2022/09/28 12:45:43;;;;;;;0.82;0.40;;;16.00;99.90;;;;;;5118081;28;20062;-72
2022/09/28 12:48:09;;;;;;;2.22;0.40;;;16.10;99.90;;;;;;5118481;28;20040;-72
2022/09/28 12:51:02;;;;;;;2.80;0.30;;;16.10;99.90;;;;;;5118362;28;20337;-71
2022/09/28 12:53:28;;;;;;;2.60;0.40;;;16.30;99.90;;;;;;5118311;28;20068;-72
2022/09/28 12:56:10;;;;;;;1.42;0.10;;;17.00;99.90;;;;;;5118293;28;20045;-72
2022/09/28 12:59:01;;;;;;;3.35;1.60;;;17.10;99.90;;;;;;5117825;28;20032;-72
2022/09/28 13:01:34;;;;;;;5.88;3.95;;;17.30;99.90;;;;;;5118140;28;20324;-71
2022/09/28 13:04:27;;;;;;;3.92;0.65;;;17.30;99.90;;;;;;5118203;28;20380;-71
2022/09/28 13:07:12;;;;;;;6.18;2.08;;;17.20;99.90;;;;;;5118580;28;20108;-72
2022/09/28 13:10:16;;;;;;;3.10;1.10;;;17.00;99.90;;;;;;5118064;28;20043;-71
2022/09/28 13:13:10;;;;;;;0.28;0.10;;;16.80;99.90;;;;;;5115782;28;20428;-71
2022/09/28 13:16:02;;;;;;;1.75;0.35;;;16.40;99.90;;;;;;5117930;28;20114;-72
2022/09/28 13:18:38;;;;;;;0.17;0.08;;;16.20;99.90;;;;;;5117916;28;20050;-72
2022/09/28 13:21:41;;;;;;;1.17;0.52;;;16.10;99.90;;;;;;5117883;28;20336;-72
2022/09/28 13:24:15;;;;;;;0.73;0.30;;;16.00;99.90;;;;;;5117774;28;20153;-72
2022/09/28 13:26:44;;;;;;;1.80;0.20;;;15.90;99.90;;;;;;5117770;28;20084;-71
2022/09/28 13:29:13;;;;;;;2.13;0.43;;;15.80;99.90;;;;;;5117324;27;20114;-72
2022/09/28 13:31:56;;;;;;;1.92;0.40;;;15.70;99.90;;;;;;5117678;27;20036;-72